sensor_id;sensor_type;location;lat;lon;timestamp;temperature;humidity
13591;DHT22;6866;50.778;7.206;2022-10-16T00:01:09;14.80;99.90
13591;DHT22;6866;50.778;7.206;2022-10-16T00:03:37;14.80;99.90
13591;DHT22;6866;50.778;7.206;2022-10-16T00:06:03;14.80;99.90
13591;DHT22;6866;50.778;7.206;2022-10-16T00:08:29;14.70;99.90
13591;DHT22;6866;50.778;7.206;2022-10-16T00:11:09;14.80;99.90
13591;DHT22;6866;50.778;7.206;2022-10-16T00:13:37;14.70;99.90
13591;DHT22;6866;50.778;7.206;2022-10-16T00:16:03;14.80;99.90
13591;DHT22;6866;50.778;7.206;2022-10-16T00:18:29;14.80;99.90
13591;DHT22;6866;50.778;7.206;2022-10-16T00:20:56;14.80;99.90
13591;DHT22;6866;50.778;7.206;2022-10-16T00:23:26;14.90;99.90
13591;DHT22;6866;50.778;7.206;2022-10-16T00:25:57;14.90;99.90
13591;DHT22;6866;50.778;7.206;2022-10-16T00:28:22;15.00;99.90
13591;DHT22;6866;50.778;7.206;2022-10-16T00:30:48;14.90;99.90
13591;DHT22;6866;50.778;7.206;2022-10-16T00:33:14;14.90;99.90
13591;DHT22;6866;50.778;7.206;2022-10-16T00:35:39;14.90;99.90
13591;DHT22;6866;50.778;7.206;2022-10-16T00:38:05;14.80;99.90
13591;DHT22;6866;50.778;7.206;2022-10-16T00:40:30;14.80;99.90
13591;DHT22;6866;50.778;7.206;2022-10-16T00:42:56;14.70;99.90
13591;DHT22;6866;50.778;7.206;2022-10-16T00:45:21;14.70;99.90
13591;DHT22;6866;50.778;7.206;2022-10-16T00:47:48;14.70;99.90
13591;DHT22;6866;50.778;7.206;2022-10-16T00:50:24;14.70;99.90
13591;DHT22;6866;50.778;7.206;2022-10-16T00:52:52;14.60;99.90
13591;DHT22;6866;50.778;7.206;2022-10-16T00:55:19;14.60;99.90
13591;DHT22;6866;50.778;7.206;2022-10-16T00:57:45;14.50;99.90
13591;DHT22;6866;50.778;7.206;2022-10-16T01:05:24;14.60;99.90
13591;DHT22;6866;50.778;7.206;2022-10-16T01:10:45;14.50;99.90
13591;DHT22;6866;50.778;7.206;2022-10-16T01:13:38;14.50;99.90
13591;DHT22;6866;50.778;7.206;2022-10-16T01:16:07;14.50;99.90
13591;DHT22;6866;50.778;7.206;2022-10-16T01:21:24;14.50;99.90
13591;DHT22;6866;50.778;7.206;2022-10-16T01:26:44;14.40;99.90
13591;DHT22;6866;50.778;7.206;2022-10-16T01:29:25;14.40;99.90
13591;DHT22;6866;50.778;7.206;2022-10-16T01:31:57;14.40;99.90
13591;DHT22;6866;50.778;7.206;2022-10-16T01:34:49;14.40;99.90
13591;DHT22;6866;50.778;7.206;2022-10-16T01:37:25;14.40;99.90
13591;DHT22;6866;50.778;7.206;2022-10-16T01:39:55;14.40;99.90
13591;DHT22;6866;50.778;7.206;2022-10-16T01:42:29;14.40;99.90
13591;DHT22;6866;50.778;7.206;2022-10-16T01:44:56;14.30;99.90
13591;DHT22;6866;50.778;7.206;2022-10-16T01:47:25;14.20;99.90
13591;DHT22;6866;50.778;7.206;2022-10-16T01:49:53;14.20;99.90
13591;DHT22;6866;50.778;7.206;2022-10-16T01:52:22;14.20;99.90
13591;DHT22;6866;50.778;7.206;2022-10-16T01:54:50;14.10;99.90
13591;DHT22;6866;50.778;7.206;2022-10-16T01:57:18;14.10;99.90
13591;DHT22;6866;50.778;7.206;2022-10-16T01:59:48;14.00;99.90
13591;DHT22;6866;50.778;7.206;2022-10-16T02:02:16;14.00;99.90
13591;DHT22;6866;50.778;7.206;2022-10-16T02:04:45;14.00;99.90
13591;DHT22;6866;50.778;7.206;2022-10-16T02:07:12;14.00;99.90
13591;DHT22;6866;50.778;7.206;2022-10-16T02:09:38;14.10;99.90
13591;DHT22;6866;50.778;7.206;2022-10-16T02:12:25;14.00;99.90
13591;DHT22;6866;50.778;7.206;2022-10-16T02:14:51;14.00;99.90
13591;DHT22;6866;50.778;7.206;2022-10-16T02:17:18;13.90;99.90
13591;DHT22;6866;50.778;7.206;2022-10-16T02:19:46;14.00;99.90
13591;DHT22;6866;50.778;7.206;2022-10-16T02:22:21;13.80;99.90
13591;DHT22;6866;50.778;7.206;2022-10-16T02:24:55;13.90;99.90
13591;DHT22;6866;50.778;7.206;2022-10-16T02:27:33;13.90;99.90
13591;DHT22;6866;50.778;7.206;2022-10-16T02:30:20;14.00;99.90
13591;DHT22;6866;50.778;7.206;2022-10-16T02:32:48;13.90;99.90
13591;DHT22;6866;50.778;7.206;2022-10-16T02:35:17;14.00;99.90
13591;DHT22;6866;50.778;7.206;2022-10-16T02:37:44;14.00;99.90
13591;DHT22;6866;50.778;7.206;2022-10-16T02:40:11;14.00;99.90
13591;DHT22;6866;50.778;7.206;2022-10-16T02:42:39;13.90;99.90
13591;DHT22;6866;50.778;7.206;2022-10-16T02:45:07;14.00;99.90
13591;DHT22;6866;50.778;7.206;2022-10-16T02:47:33;14.00;99.90
13591;DHT22;6866;50.778;7.206;2022-10-16T02:49:58;14.00;99.90
13591;DHT22;6866;50.778;7.206;2022-10-16T02:52:24;14.00;99.90
13591;DHT22;6866;50.778;7.206;2022-10-16T02:54:50;14.00;99.90
13591;DHT22;6866;50.778;7.206;2022-10-16T02:57:15;14.10;99.90
13591;DHT22;6866;50.778;7.206;2022-10-16T02:59:41;14.10;99.90
13591;DHT22;6866;50.778;7.206;2022-10-16T03:02:07;14.00;99.90
13591;DHT22;6866;50.778;7.206;2022-10-16T03:04:32;14.00;99.90
13591;DHT22;6866;50.778;7.206;2022-10-16T03:06:58;14.00;99.90
13591;DHT22;6866;50.778;7.206;2022-10-16T03:09:23;14.00;99.90
13591;DHT22;6866;50.778;7.206;2022-10-16T03:11:49;14.00;99.90
13591;DHT22;6866;50.778;7.206;2022-10-16T03:14:14;14.00;99.90
13591;DHT22;6866;50.778;7.206;2022-10-16T03:16:40;14.10;99.90
13591;DHT22;6866;50.778;7.206;2022-10-16T03:19:05;14.30;99.90
13591;DHT22;6866;50.778;7.206;2022-10-16T03:21:31;14.50;99.90
13591;DHT22;6866;50.778;7.206;2022-10-16T03:23:56;14.60;99.90
13591;DHT22;6866;50.778;7.206;2022-10-16T03:26:22;14.70;99.90
13591;DHT22;6866;50.778;7.206;2022-10-16T03:28:47;14.80;99.90
13591;DHT22;6866;50.778;7.206;2022-10-16T03:31:13;14.90;99.90
13591;DHT22;6866;50.778;7.206;2022-10-16T03:33:38;14.90;99.90
13591;DHT22;6866;50.778;7.206;2022-10-16T03:36:04;14.90;99.90
13591;DHT22;6866;50.778;7.206;2022-10-16T03:38:30;15.00;99.90
13591;DHT22;6866;50.778;7.206;2022-10-16T03:40:55;15.00;99.90
13591;DHT22;6866;50.778;7.206;2022-10-16T03:43:21;14.90;99.90
13591;DHT22;6866;50.778;7.206;2022-10-16T03:45:46;14.60;99.90
13591;DHT22;6866;50.778;7.206;2022-10-16T03:48:12;14.50;99.90
13591;DHT22;6866;50.778;7.206;2022-10-16T03:50:37;14.50;99.90
13591;DHT22;6866;50.778;7.206;2022-10-16T03:53:03;14.50;99.90
13591;DHT22;6866;50.778;7.206;2022-10-16T03:55:29;14.40;99.90
13591;DHT22;6866;50.778;7.206;2022-10-16T03:57:54;14.40;99.90
13591;DHT22;6866;50.778;7.206;2022-10-16T04:00:20;14.40;99.90
13591;DHT22;6866;50.778;7.206;2022-10-16T04:02:45;14.40;99.90
13591;DHT22;6866;50.778;7.206;2022-10-16T04:05:11;14.50;99.90
13591;DHT22;6866;50.778;7.206;2022-10-16T04:07:37;14.70;99.90
13591;DHT22;6866;50.778;7.206;2022-10-16T04:10:03;14.80;99.90
13591;DHT22;6866;50.778;7.206;2022-10-16T04:12:29;14.80;99.90
13591;DHT22;6866;50.778;7.206;2022-10-16T04:14:54;14.90;99.90
13591;DHT22;6866;50.778;7.206;2022-10-16T04:17:20;15.00;99.90
13591;DHT22;6866;50.778;7.206;2022-10-16T04:19:45;15.00;99.90
13591;DHT22;6866;50.778;7.206;2022-10-16T04:22:11;15.10;99.90
13591;DHT22;6866;50.778;7.206;2022-10-16T04:24:36;15.20;99.90
13591;DHT22;6866;50.778;7.206;2022-10-16T04:27:02;15.20;99.90
13591;DHT22;6866;50.778;7.206;2022-10-16T04:29:27;15.20;99.90
13591;DHT22;6866;50.778;7.206;2022-10-16T04:31:53;15.20;99.90
13591;DHT22;6866;50.778;7.206;2022-10-16T04:34:19;15.20;99.90
13591;DHT22;6866;50.778;7.206;2022-10-16T04:36:47;15.30;99.90
13591;DHT22;6866;50.778;7.206;2022-10-16T04:39:13;15.30;99.90
13591;DHT22;6866;50.778;7.206;2022-10-16T04:41:39;15.30;99.90
13591;DHT22;6866;50.778;7.206;2022-10-16T04:44:04;15.30;99.90
13591;DHT22;6866;50.778;7.206;2022-10-16T04:46:30;15.30;99.90
13591;DHT22;6866;50.778;7.206;2022-10-16T04:48:55;15.30;99.90
13591;DHT22;6866;50.778;7.206;2022-10-16T04:51:21;15.30;99.90
13591;DHT22;6866;50.778;7.206;2022-10-16T04:53:46;15.30;99.90
13591;DHT22;6866;50.778;7.206;2022-10-16T04:56:12;15.30;99.90
13591;DHT22;6866;50.778;7.206;2022-10-16T04:58:37;15.30;99.90
13591;DHT22;6866;50.778;7.206;2022-10-16T05:01:03;15.30;99.90
13591;DHT22;6866;50.778;7.206;2022-10-16T05:03:28;15.30;99.90
13591;DHT22;6866;50.778;7.206;2022-10-16T05:05:54;15.30;99.90
13591;DHT22;6866;50.778;7.206;2022-10-16T05:08:20;15.30;99.90
13591;DHT22;6866;50.778;7.206;2022-10-16T05:10:45;15.30;99.90
13591;DHT22;6866;50.778;7.206;2022-10-16T05:13:11;15.30;99.90
13591;DHT22;6866;50.778;7.206;2022-10-16T05:15:37;15.20;99.90
13591;DHT22;6866;50.778;7.206;2022-10-16T05:18:03;15.30;99.90
13591;DHT22;6866;50.778;7.206;2022-10-16T05:20:29;15.20;99.90
13591;DHT22;6866;50.778;7.206;2022-10-16T05:22:54;15.20;99.90
13591;DHT22;6866;50.778;7.206;2022-10-16T05:25:20;15.30;99.90
13591;DHT22;6866;50.778;7.206;2022-10-16T05:27:49;15.30;99.90
13591;DHT22;6866;50.778;7.206;2022-10-16T05:30:16;15.30;99.90
13591;DHT22;6866;50.778;7.206;2022-10-16T05:32:45;15.30;99.90
13591;DHT22;6866;50.778;7.206;2022-10-16T05:35:11;15.30;99.90
13591;DHT22;6866;50.778;7.206;2022-10-16T05:37:36;15.20;99.90
13591;DHT22;6866;50.778;7.206;2022-10-16T05:40:02;15.10;99.90
13591;DHT22;6866;50.778;7.206;2022-10-16T05:42:30;15.10;99.90
13591;DHT22;6866;50.778;7.206;2022-10-16T05:44:55;15.00;99.90
13591;DHT22;6866;50.778;7.206;2022-10-16T05:47:21;14.90;99.90
13591;DHT22;6866;50.778;7.206;2022-10-16T05:49:46;14.80;99.90
13591;DHT22;6866;50.778;7.206;2022-10-16T05:52:12;14.70;99.90
13591;DHT22;6866;50.778;7.206;2022-10-16T05:54:37;14.70;99.90
13591;DHT22;6866;50.778;7.206;2022-10-16T05:57:03;14.70;99.90
13591;DHT22;6866;50.778;7.206;2022-10-16T05:59:31;14.70;99.90
13591;DHT22;6866;50.778;7.206;2022-10-16T06:01:56;14.70;99.90
13591;DHT22;6866;50.778;7.206;2022-10-16T06:04:22;14.70;99.90
13591;DHT22;6866;50.778;7.206;2022-10-16T06:06:47;14.70;99.90
13591;DHT22;6866;50.778;7.206;2022-10-16T06:09:13;14.70;99.90
13591;DHT22;6866;50.778;7.206;2022-10-16T06:11:38;14.70;99.90
13591;DHT22;6866;50.778;7.206;2022-10-16T06:14:04;14.60;99.90
13591;DHT22;6866;50.778;7.206;2022-10-16T06:16:33;14.70;99.90
13591;DHT22;6866;50.778;7.206;2022-10-16T06:18:59;14.70;99.90
13591;DHT22;6866;50.778;7.206;2022-10-16T06:21:26;14.70;99.90
13591;DHT22;6866;50.778;7.206;2022-10-16T06:23:53;14.70;99.90
13591;DHT22;6866;50.778;7.206;2022-10-16T06:26:22;14.70;99.90
13591;DHT22;6866;50.778;7.206;2022-10-16T06:28:48;14.70;99.90
13591;DHT22;6866;50.778;7.206;2022-10-16T06:31:14;14.70;99.90
13591;DHT22;6866;50.778;7.206;2022-10-16T06:33:40;14.80;99.90
13591;DHT22;6866;50.778;7.206;2022-10-16T06:38:34;14.70;99.90
13591;DHT22;6866;50.778;7.206;2022-10-16T06:40:59;14.80;99.90
13591;DHT22;6866;50.778;7.206;2022-10-16T06:43:25;14.70;99.90
13591;DHT22;6866;50.778;7.206;2022-10-16T06:45:55;14.70;99.90
13591;DHT22;6866;50.778;7.206;2022-10-16T06:48:22;14.80;99.90
13591;DHT22;6866;50.778;7.206;2022-10-16T06:51:06;14.70;99.90
13591;DHT22;6866;50.778;7.206;2022-10-16T06:53:34;14.70;99.90
13591;DHT22;6866;50.778;7.206;2022-10-16T06:56:15;14.80;99.90
13591;DHT22;6866;50.778;7.206;2022-10-16T06:58:42;14.90;99.90
13591;DHT22;6866;50.778;7.206;2022-10-16T07:01:08;14.90;99.90
13591;DHT22;6866;50.778;7.206;2022-10-16T07:03:37;15.10;99.90
13591;DHT22;6866;50.778;7.206;2022-10-16T07:06:05;15.20;99.90
13591;DHT22;6866;50.778;7.206;2022-10-16T07:08:35;15.30;99.90
13591;DHT22;6866;50.778;7.206;2022-10-16T07:11:02;15.50;99.90
13591;DHT22;6866;50.778;7.206;2022-10-16T07:13:28;15.60;99.90
13591;DHT22;6866;50.778;7.206;2022-10-16T07:15:54;15.60;99.90
13591;DHT22;6866;50.778;7.206;2022-10-16T07:18:19;15.80;99.90
13591;DHT22;6866;50.778;7.206;2022-10-16T07:20:45;15.80;99.90
13591;DHT22;6866;50.778;7.206;2022-10-16T07:23:10;15.70;99.90
13591;DHT22;6866;50.778;7.206;2022-10-16T07:25:36;15.80;99.90
13591;DHT22;6866;50.778;7.206;2022-10-16T07:28:01;15.70;99.90
13591;DHT22;6866;50.778;7.206;2022-10-16T07:30:27;15.80;99.90
13591;DHT22;6866;50.778;7.206;2022-10-16T07:32:53;15.80;99.90
13591;DHT22;6866;50.778;7.206;2022-10-16T07:35:18;15.90;99.90
13591;DHT22;6866;50.778;7.206;2022-10-16T07:37:47;17.20;99.90
13591;DHT22;6866;50.778;7.206;2022-10-16T07:40:13;16.80;99.90
13591;DHT22;6866;50.778;7.206;2022-10-16T07:42:38;16.50;99.90
13591;DHT22;6866;50.778;7.206;2022-10-16T07:45:04;16.30;99.90
13591;DHT22;6866;50.778;7.206;2022-10-16T07:47:30;16.30;99.90
13591;DHT22;6866;50.778;7.206;2022-10-16T07:49:56;16.30;99.90
13591;DHT22;6866;50.778;7.206;2022-10-16T07:52:21;16.30;99.90
13591;DHT22;6866;50.778;7.206;2022-10-16T07:54:47;16.50;99.90
13591;DHT22;6866;50.778;7.206;2022-10-16T07:57:12;16.70;99.90
13591;DHT22;6866;50.778;7.206;2022-10-16T07:59:44;16.90;99.90
13591;DHT22;6866;50.778;7.206;2022-10-16T08:02:09;17.10;99.90
13591;DHT22;6866;50.778;7.206;2022-10-16T08:04:35;17.60;99.90
13591;DHT22;6866;50.778;7.206;2022-10-16T08:07:00;17.60;99.90
13591;DHT22;6866;50.778;7.206;2022-10-16T08:09:26;17.50;99.90
13591;DHT22;6866;50.778;7.206;2022-10-16T08:11:51;17.20;99.90
13591;DHT22;6866;50.778;7.206;2022-10-16T08:14:17;17.10;99.90
13591;DHT22;6866;50.778;7.206;2022-10-16T08:16:43;17.00;99.90
13591;DHT22;6866;50.778;7.206;2022-10-16T08:19:08;17.00;99.90
13591;DHT22;6866;50.778;7.206;2022-10-16T08:21:34;17.30;99.90
13591;DHT22;6866;50.778;7.206;2022-10-16T08:24:00;17.40;99.90
13591;DHT22;6866;50.778;7.206;2022-10-16T08:26:26;17.60;99.90
13591;DHT22;6866;50.778;7.206;2022-10-16T08:28:52;17.80;98.90
13591;DHT22;6866;50.778;7.206;2022-10-16T08:31:18;17.90;98.10
13591;DHT22;6866;50.778;7.206;2022-10-16T08:33:46;18.00;97.40
13591;DHT22;6866;50.778;7.206;2022-10-16T08:36:13;18.30;96.20
13591;DHT22;6866;50.778;7.206;2022-10-16T08:38:39;20.50;92.40
13591;DHT22;6866;50.778;7.206;2022-10-16T08:41:29;20.10;85.60
13591;DHT22;6866;50.778;7.206;2022-10-16T08:44:27;20.60;84.80
13591;DHT22;6866;50.778;7.206;2022-10-16T08:47:18;21.80;78.30
13591;DHT22;6866;50.778;7.206;2022-10-16T08:49:58;21.50;74.70
13591;DHT22;6866;50.778;7.206;2022-10-16T08:52:32;21.50;74.40
13591;DHT22;6866;50.778;7.206;2022-10-16T08:54:59;21.20;76.50
13591;DHT22;6866;50.778;7.206;2022-10-16T08:57:25;20.60;78.10
13591;DHT22;6866;50.778;7.206;2022-10-16T09:00:00;20.30;78.50
13591;DHT22;6866;50.778;7.206;2022-10-16T09:02:35;19.90;80.20
13591;DHT22;6866;50.778;7.206;2022-10-16T09:05:34;19.60;82.40
13591;DHT22;6866;50.778;7.206;2022-10-16T09:08:05;19.70;82.00
13591;DHT22;6866;50.778;7.206;2022-10-16T09:10:39;19.50;83.00
13591;DHT22;6866;50.778;7.206;2022-10-16T09:16:14;19.60;84.80
13591;DHT22;6866;50.778;7.206;2022-10-16T09:19:02;20.00;83.00
13591;DHT22;6866;50.778;7.206;2022-10-16T09:21:30;20.70;77.00
13591;DHT22;6866;50.778;7.206;2022-10-16T09:24:00;21.20;74.60
13591;DHT22;6866;50.778;7.206;2022-10-16T09:26:30;21.80;72.80
13591;DHT22;6866;50.778;7.206;2022-10-16T09:28:55;21.80;70.00
13591;DHT22;6866;50.778;7.206;2022-10-16T09:31:22;22.20;69.20
13591;DHT22;6866;50.778;7.206;2022-10-16T09:33:52;23.00;65.80
13591;DHT22;6866;50.778;7.206;2022-10-16T09:36:20;23.60;62.80
13591;DHT22;6866;50.778;7.206;2022-10-16T09:38:46;23.80;61.20
13591;DHT22;6866;50.778;7.206;2022-10-16T09:41:22;23.80;59.70
13591;DHT22;6866;50.778;7.206;2022-10-16T09:43:59;24.10;58.10
13591;DHT22;6866;50.778;7.206;2022-10-16T09:49:00;23.70;57.70
13591;DHT22;6866;50.778;7.206;2022-10-16T09:51:34;24.30;57.40
13591;DHT22;6866;50.778;7.206;2022-10-16T09:56:37;23.90;57.90
13591;DHT22;6866;50.778;7.206;2022-10-16T10:01:49;23.90;57.20
13591;DHT22;6866;50.778;7.206;2022-10-16T10:04:16;23.10;58.20
13591;DHT22;6866;50.778;7.206;2022-10-16T10:06:53;22.70;59.00
13591;DHT22;6866;50.778;7.206;2022-10-16T10:09:28;22.60;61.20
13591;DHT22;6866;50.778;7.206;2022-10-16T10:12:00;22.50;61.40
13591;DHT22;6866;50.778;7.206;2022-10-16T10:14:31;22.60;60.60
13591;DHT22;6866;50.778;7.206;2022-10-16T10:19:38;22.70;60.50
13591;DHT22;6866;50.778;7.206;2022-10-16T10:36:36;21.80;61.70
13591;DHT22;6866;50.778;7.206;2022-10-16T10:39:12;22.20;61.60
13591;DHT22;6866;50.778;7.206;2022-10-16T10:44:35;22.20;59.50
13591;DHT22;6866;50.778;7.206;2022-10-16T10:47:24;22.20;60.40
13591;DHT22;6866;50.778;7.206;2022-10-16T10:50:14;22.30;60.60
13591;DHT22;6866;50.778;7.206;2022-10-16T10:53:18;22.40;59.80
13591;DHT22;6866;50.778;7.206;2022-10-16T10:56:20;22.40;59.30
13591;DHT22;6866;50.778;7.206;2022-10-16T10:59:15;22.50;58.20
13591;DHT22;6866;50.778;7.206;2022-10-16T11:01:56;22.70;59.60
13591;DHT22;6866;50.778;7.206;2022-10-16T11:04:36;22.70;58.20
13591;DHT22;6866;50.778;7.206;2022-10-16T11:07:28;22.60;57.70
13591;DHT22;6866;50.778;7.206;2022-10-16T11:10:11;22.50;56.40
13591;DHT22;6866;50.778;7.206;2022-10-16T11:13:10;21.80;57.40
13591;DHT22;6866;50.778;7.206;2022-10-16T11:15:41;21.90;57.90
13591;DHT22;6866;50.778;7.206;2022-10-16T11:18:22;21.90;57.70
13591;DHT22;6866;50.778;7.206;2022-10-16T11:20:56;22.00;57.90
13591;DHT22;6866;50.778;7.206;2022-10-16T11:23:30;22.00;57.30
13591;DHT22;6866;50.778;7.206;2022-10-16T11:26:00;22.10;57.90
13591;DHT22;6866;50.778;7.206;2022-10-16T11:28:35;22.20;58.30
13591;DHT22;6866;50.778;7.206;2022-10-16T11:32:05;22.00;59.00
13591;DHT22;6866;50.778;7.206;2022-10-16T11:34:09;21.70;60.00
13591;DHT22;6866;50.778;7.206;2022-10-16T11:36:47;21.60;58.90
13591;DHT22;6866;50.778;7.206;2022-10-16T11:39:21;21.50;60.60
13591;DHT22;6866;50.778;7.206;2022-10-16T11:42:54;21.80;59.30
13591;DHT22;6866;50.778;7.206;2022-10-16T11:47:45;22.30;59.90
13591;DHT22;6866;50.778;7.206;2022-10-16T11:55:21;21.90;58.90
13591;DHT22;6866;50.778;7.206;2022-10-16T11:57:51;22.10;59.60
13591;DHT22;6866;50.778;7.206;2022-10-16T12:00:24;21.80;59.20
13591;DHT22;6866;50.778;7.206;2022-10-16T12:02:57;21.90;58.90
13591;DHT22;6866;50.778;7.206;2022-10-16T12:10:33;22.00;59.20
13591;DHT22;6866;50.778;7.206;2022-10-16T12:15:47;21.70;60.80
13591;DHT22;6866;50.778;7.206;2022-10-16T12:18:23;21.50;59.70
13591;DHT22;6866;50.778;7.206;2022-10-16T12:20:57;21.50;61.70
13591;DHT22;6866;50.778;7.206;2022-10-16T12:23:32;21.40;60.90
13591;DHT22;6866;50.778;7.206;2022-10-16T12:25:59;21.40;61.70
13591;DHT22;6866;50.778;7.206;2022-10-16T12:28:30;21.20;59.60
13591;DHT22;6866;50.778;7.206;2022-10-16T12:31:03;21.40;61.40
13591;DHT22;6866;50.778;7.206;2022-10-16T12:33:58;21.50;62.20
13591;DHT22;6866;50.778;7.206;2022-10-16T12:36:33;21.70;59.90
13591;DHT22;6866;50.778;7.206;2022-10-16T12:39:00;21.70;59.30
13591;DHT22;6866;50.778;7.206;2022-10-16T12:43:54;21.90;60.30
13591;DHT22;6866;50.778;7.206;2022-10-16T12:46:23;21.90;60.70
13591;DHT22;6866;50.778;7.206;2022-10-16T12:48:49;21.80;60.40
13591;DHT22;6866;50.778;7.206;2022-10-16T12:51:35;21.90;60.40
13591;DHT22;6866;50.778;7.206;2022-10-16T12:54:28;22.00;59.60
13591;DHT22;6866;50.778;7.206;2022-10-16T13:05:34;21.80;58.60
13591;DHT22;6866;50.778;7.206;2022-10-16T13:08:15;22.20;59.20
13591;DHT22;6866;50.778;7.206;2022-10-16T13:10:59;22.10;58.70
13591;DHT22;6866;50.778;7.206;2022-10-16T13:13:46;21.90;59.30
13591;DHT22;6866;50.778;7.206;2022-10-16T13:19:43;21.80;60.40
13591;DHT22;6866;50.778;7.206;2022-10-16T13:22:30;21.90;60.60
13591;DHT22;6866;50.778;7.206;2022-10-16T13:25:39;21.80;60.50
13591;DHT22;6866;50.778;7.206;2022-10-16T13:28:08;21.60;62.10
13591;DHT22;6866;50.778;7.206;2022-10-16T13:30:42;21.50;61.30
13591;DHT22;6866;50.778;7.206;2022-10-16T13:35:49;21.30;61.80
13591;DHT22;6866;50.778;7.206;2022-10-16T13:38:22;21.20;63.70
13591;DHT22;6866;50.778;7.206;2022-10-16T13:40:53;21.10;63.30
13591;DHT22;6866;50.778;7.206;2022-10-16T13:43:24;21.10;62.80
13591;DHT22;6866;50.778;7.206;2022-10-16T13:46:12;20.90;64.30
13591;DHT22;6866;50.778;7.206;2022-10-16T13:48:37;20.90;64.30
13591;DHT22;6866;50.778;7.206;2022-10-16T13:51:21;20.90;65.20
13591;DHT22;6866;50.778;7.206;2022-10-16T13:53:47;20.90;64.40
13591;DHT22;6866;50.778;7.206;2022-10-16T13:56:16;20.70;65.30
13591;DHT22;6866;50.778;7.206;2022-10-16T13:58:42;20.70;67.30
13591;DHT22;6866;50.778;7.206;2022-10-16T14:01:24;20.70;68.40
13591;DHT22;6866;50.778;7.206;2022-10-16T14:03:51;20.70;68.90
13591;DHT22;6866;50.778;7.206;2022-10-16T14:06:21;20.70;69.60
13591;DHT22;6866;50.778;7.206;2022-10-16T14:09:08;20.60;70.50
13591;DHT22;6866;50.778;7.206;2022-10-16T14:11:52;20.60;70.80
13591;DHT22;6866;50.778;7.206;2022-10-16T14:14:21;20.60;70.70
13591;DHT22;6866;50.778;7.206;2022-10-16T14:16:48;20.60;71.90
13591;DHT22;6866;50.778;7.206;2022-10-16T14:19:28;20.60;72.30
13591;DHT22;6866;50.778;7.206;2022-10-16T14:21:54;20.40;73.10
13591;DHT22;6866;50.778;7.206;2022-10-16T14:24:33;20.40;73.90
13591;DHT22;6866;50.778;7.206;2022-10-16T14:27:00;20.50;74.30
13591;DHT22;6866;50.778;7.206;2022-10-16T14:29:28;20.40;73.10
13591;DHT22;6866;50.778;7.206;2022-10-16T14:31:59;20.40;73.50
13591;DHT22;6866;50.778;7.206;2022-10-16T14:34:38;20.30;74.30
13591;DHT22;6866;50.778;7.206;2022-10-16T14:37:28;20.30;74.60
13591;DHT22;6866;50.778;7.206;2022-10-16T14:39:55;20.30;75.10
13591;DHT22;6866;50.778;7.206;2022-10-16T14:42:22;20.30;75.90
13591;DHT22;6866;50.778;7.206;2022-10-16T14:44:53;20.30;76.60
13591;DHT22;6866;50.778;7.206;2022-10-16T14:47:22;20.30;76.40
13591;DHT22;6866;50.778;7.206;2022-10-16T14:49:52;20.20;77.00
13591;DHT22;6866;50.778;7.206;2022-10-16T14:52:18;20.30;77.90
13591;DHT22;6866;50.778;7.206;2022-10-16T14:54:48;20.20;77.40
13591;DHT22;6866;50.778;7.206;2022-10-16T14:57:19;20.10;79.00
13591;DHT22;6866;50.778;7.206;2022-10-16T14:59:46;20.10;79.60
13591;DHT22;6866;50.778;7.206;2022-10-16T15:04:47;20.10;78.90
13591;DHT22;6866;50.778;7.206;2022-10-16T15:07:13;20.10;80.00
13591;DHT22;6866;50.778;7.206;2022-10-16T15:09:39;20.00;80.40
13591;DHT22;6866;50.778;7.206;2022-10-16T15:12:05;19.90;81.70
13591;DHT22;6866;50.778;7.206;2022-10-16T15:14:30;19.90;82.10
13591;DHT22;6866;50.778;7.206;2022-10-16T15:16:57;19.90;82.60
13591;DHT22;6866;50.778;7.206;2022-10-16T15:19:22;19.90;82.50
13591;DHT22;6866;50.778;7.206;2022-10-16T15:21:48;19.80;84.30
13591;DHT22;6866;50.778;7.206;2022-10-16T15:24:15;19.90;84.20
13591;DHT22;6866;50.778;7.206;2022-10-16T15:26:41;19.90;83.90
13591;DHT22;6866;50.778;7.206;2022-10-16T15:29:08;19.90;84.50
13591;DHT22;6866;50.778;7.206;2022-10-16T15:31:34;19.80;84.80
13591;DHT22;6866;50.778;7.206;2022-10-16T15:34:00;19.80;85.60
13591;DHT22;6866;50.778;7.206;2022-10-16T15:36:33;19.80;85.70
13591;DHT22;6866;50.778;7.206;2022-10-16T15:38:59;19.80;85.70
13591;DHT22;6866;50.778;7.206;2022-10-16T15:41:25;19.70;87.00
13591;DHT22;6866;50.778;7.206;2022-10-16T15:43:52;19.60;87.80
13591;DHT22;6866;50.778;7.206;2022-10-16T15:46:19;19.70;88.00
13591;DHT22;6866;50.778;7.206;2022-10-16T15:48:47;19.60;88.60
13591;DHT22;6866;50.778;7.206;2022-10-16T15:51:13;19.60;88.90
13591;DHT22;6866;50.778;7.206;2022-10-16T15:53:38;19.60;88.20
13591;DHT22;6866;50.778;7.206;2022-10-16T15:56:06;19.60;89.30
13591;DHT22;6866;50.778;7.206;2022-10-16T15:58:32;19.50;89.90
13591;DHT22;6866;50.778;7.206;2022-10-16T16:00:59;19.50;90.50
13591;DHT22;6866;50.778;7.206;2022-10-16T16:03:30;19.40;91.10
13591;DHT22;6866;50.778;7.206;2022-10-16T16:05:56;19.40;91.30
13591;DHT22;6866;50.778;7.206;2022-10-16T16:08:22;19.30;91.60
13591;DHT22;6866;50.778;7.206;2022-10-16T16:11:00;19.30;92.10
13591;DHT22;6866;50.778;7.206;2022-10-16T16:13:26;19.30;92.20
13591;DHT22;6866;50.778;7.206;2022-10-16T16:15:51;19.30;92.20
13591;DHT22;6866;50.778;7.206;2022-10-16T16:18:17;19.30;92.30
13591;DHT22;6866;50.778;7.206;2022-10-16T16:20:43;19.30;92.80
13591;DHT22;6866;50.778;7.206;2022-10-16T16:23:09;19.20;93.40
13591;DHT22;6866;50.778;7.206;2022-10-16T16:25:34;19.10;94.00
13591;DHT22;6866;50.778;7.206;2022-10-16T16:28:00;19.10;94.20
13591;DHT22;6866;50.778;7.206;2022-10-16T16:30:26;19.10;94.20
13591;DHT22;6866;50.778;7.206;2022-10-16T16:32:52;19.00;94.80
13591;DHT22;6866;50.778;7.206;2022-10-16T16:35:17;19.00;94.70
13591;DHT22;6866;50.778;7.206;2022-10-16T16:37:43;19.00;94.30
13591;DHT22;6866;50.778;7.206;2022-10-16T16:40:09;19.10;94.50
13591;DHT22;6866;50.778;7.206;2022-10-16T16:42:38;19.00;94.60
13591;DHT22;6866;50.778;7.206;2022-10-16T16:45:05;19.00;94.50
13591;DHT22;6866;50.778;7.206;2022-10-16T16:47:31;19.00;94.50
13591;DHT22;6866;50.778;7.206;2022-10-16T16:49:56;19.00;94.40
13591;DHT22;6866;50.778;7.206;2022-10-16T16:52:24;18.90;94.80
13591;DHT22;6866;50.778;7.206;2022-10-16T16:54:49;19.00;94.60
13591;DHT22;6866;50.778;7.206;2022-10-16T16:57:21;19.00;94.50
13591;DHT22;6866;50.778;7.206;2022-10-16T16:59:47;18.90;94.60
13591;DHT22;6866;50.778;7.206;2022-10-16T17:02:15;18.90;94.70
13591;DHT22;6866;50.778;7.206;2022-10-16T17:04:42;18.90;94.80
13591;DHT22;6866;50.778;7.206;2022-10-16T17:07:08;18.80;94.60
13591;DHT22;6866;50.778;7.206;2022-10-16T17:09:35;18.80;94.70
13591;DHT22;6866;50.778;7.206;2022-10-16T17:12:01;18.80;95.00
13591;DHT22;6866;50.778;7.206;2022-10-16T17:14:26;18.80;95.40
13591;DHT22;6866;50.778;7.206;2022-10-16T17:16:52;18.70;95.70
13591;DHT22;6866;50.778;7.206;2022-10-16T17:19:19;18.70;96.20
13591;DHT22;6866;50.778;7.206;2022-10-16T17:21:48;18.70;96.50
13591;DHT22;6866;50.778;7.206;2022-10-16T17:24:14;18.70;96.50